createdAt,value
2024-01-05T00:00:56.019Z,12.19
2024-01-05T00:03:24.030Z,12.56
2024-01-05T00:05:52.096Z,12.46
2024-01-05T00:08:21.451Z,12.47
2024-01-05T00:10:49.477Z,12.25
2024-01-05T00:13:18.770Z,12.40
2024-01-05T00:15:46.575Z,12.19
2024-01-05T00:18:14.547Z,12.23
2024-01-05T00:20:42.623Z,12.03
2024-01-05T00:23:10.786Z,11.98
2024-01-05T00:25:38.617Z,11.77
2024-01-05T00:28:06.594Z,11.81
2024-01-05T00:30:37.288Z,11.56
2024-01-05T00:33:05.931Z,11.38
2024-01-05T00:35:33.762Z,11.75
2024-01-05T00:38:01.680Z,11.82
2024-01-05T00:40:29.488Z,12.16
2024-01-05T00:42:57.444Z,12.26
2024-01-05T00:45:25.243Z,12.13
2024-01-05T00:47:54.821Z,12.47
2024-01-05T00:50:22.686Z,12.32
2024-01-05T00:52:50.593Z,12.38
2024-01-05T00:55:18.345Z,11.41
2024-01-05T00:57:46.241Z,11.96
2024-01-05T01:00:15.131Z,12.40
2024-01-05T01:02:43.219Z,12.69
2024-01-05T01:05:12.882Z,12.98
2024-01-05T01:07:41.608Z,13.09
2024-01-05T01:10:09.561Z,13.01
2024-01-05T01:12:40.381Z,12.86
2024-01-05T01:15:09.003Z,12.81
2024-01-05T01:17:38.017Z,12.81
2024-01-05T01:20:07.124Z,12.84
2024-01-05T01:22:36.263Z,12.90
2024-01-05T01:25:04.179Z,12.61
2024-01-05T01:27:32.341Z,11.74
2024-01-05T01:30:00.435Z,11.41
2024-01-05T01:32:29.571Z,11.32
2024-01-05T01:34:57.745Z,10.62
2024-01-05T01:37:25.685Z,10.92
2024-01-05T01:39:54.929Z,10.97
2024-01-05T01:42:22.905Z,10.66
2024-01-05T01:44:50.782Z,10.74
2024-01-05T01:47:18.740Z,11.10
2024-01-05T01:49:49.454Z,11.36
2024-01-05T01:52:18.815Z,10.81
2024-01-05T01:54:46.817Z,11.06
2024-01-05T01:57:17.631Z,11.57
2024-01-05T01:59:45.641Z,11.54
2024-01-05T02:02:14.529Z,11.95
2024-01-05T02:04:43.624Z,12.31
2024-01-05T02:07:13.210Z,12.90
2024-01-05T02:09:41.578Z,13.17
2024-01-05T02:12:09.872Z,12.97
2024-01-05T02:14:40.937Z,12.94
2024-01-05T02:17:29.706Z,12.40
2024-01-05T02:19:57.610Z,12.42
2024-01-05T02:22:29.653Z,12.82
2024-01-05T02:24:59.782Z,12.82
2024-01-05T02:27:28.011Z,12.85
2024-01-05T02:29:56.007Z,12.61
2024-01-05T02:32:23.909Z,12.86
2024-01-05T02:34:51.790Z,13.04
2024-01-05T02:37:19.653Z,13.05
2024-01-05T02:39:47.543Z,13.17
2024-01-05T02:42:16.828Z,13.07
2024-01-05T02:44:44.626Z,13.00
2024-01-05T02:47:12.522Z,12.65
2024-01-05T02:49:40.503Z,12.01
2024-01-05T02:52:08.378Z,11.75
2024-01-05T02:54:36.227Z,11.88
2024-01-05T02:57:04.300Z,11.13
2024-01-05T02:59:33.544Z,10.69
2024-01-05T03:02:02.243Z,11.32
2024-01-05T03:04:30.180Z,10.73
2024-01-05T03:06:57.983Z,11.35
2024-01-05T03:09:25.774Z,11.10
2024-01-05T03:11:53.618Z,11.18
2024-01-05T03:14:21.804Z,10.70
2024-01-05T03:16:50.928Z,10.82
2024-01-05T03:19:18.912Z,10.78
2024-01-05T03:21:46.717Z,11.02
2024-01-05T03:24:16.475Z,10.32
2024-01-05T03:26:45.427Z,10.87
2024-01-05T03:29:13.317Z,11.58
2024-01-05T03:31:41.172Z,11.58
2024-01-05T03:34:10.653Z,11.96
2024-01-05T03:36:38.657Z,11.98
2024-01-05T03:39:08.392Z,11.55
2024-01-05T03:41:36.808Z,11.70
2024-01-05T03:44:05.444Z,12.21
2024-01-05T03:46:33.317Z,12.42
2024-01-05T03:49:01.440Z,12.47
2024-01-05T03:51:30.736Z,12.46
2024-01-05T03:53:58.565Z,12.39
2024-01-05T03:56:26.378Z,11.87
2024-01-05T03:58:54.243Z,12.00
2024-01-05T04:01:22.003Z,12.17
2024-01-05T04:03:50.009Z,11.56
2024-01-05T04:06:21.517Z,11.24
2024-01-05T04:08:51.075Z,11.11
2024-01-05T04:11:22.442Z,11.62
2024-01-05T04:13:50.328Z,11.17
2024-01-05T04:16:18.129Z,11.38
2024-01-05T04:18:46.031Z,11.15
2024-01-05T04:21:15.181Z,11.03
2024-01-05T04:23:43.300Z,11.29
2024-01-05T04:26:12.480Z,11.36
2024-01-05T04:28:40.361Z,11.68
2024-01-05T04:31:08.317Z,11.80
2024-01-05T04:33:37.089Z,11.89
2024-01-05T04:36:05.646Z,11.22
2024-01-05T04:38:35.695Z,11.46
2024-01-05T04:41:03.748Z,11.70
2024-01-05T04:43:32.878Z,10.97
2024-01-05T04:46:01.272Z,11.38
2024-01-05T04:48:29.204Z,11.64
2024-01-05T04:50:57.041Z,11.10
2024-01-05T04:53:24.900Z,10.98
2024-01-05T04:55:52.677Z,11.32
2024-01-05T04:58:20.944Z,11.41
2024-01-05T05:00:50.198Z,11.70
2024-01-05T05:03:18.117Z,11.17
2024-01-05T05:05:46.254Z,11.39
2024-01-05T05:08:16.735Z,11.95
2024-01-05T05:10:44.953Z,11.54
2024-01-05T05:13:12.797Z,11.48
2024-01-05T05:15:40.590Z,11.49
2024-01-05T05:18:12.712Z,10.91
2024-01-05T05:20:40.589Z,11.42
2024-01-05T05:23:08.393Z,11.03
2024-01-05T05:25:36.184Z,10.83
2024-01-05T05:28:04.152Z,11.42
2024-01-05T05:30:32.099Z,11.41
2024-01-05T05:33:00.245Z,10.55
2024-01-05T05:35:29.873Z,10.16
2024-01-05T05:37:57.793Z,11.45
2024-01-05T05:40:26.733Z,11.24
2024-01-05T05:42:54.604Z,11.69
2024-01-05T05:45:22.540Z,11.74
2024-01-05T05:47:50.340Z,11.63
2024-01-05T05:50:18.340Z,10.74
2024-01-05T05:52:48.214Z,10.95
2024-01-05T05:55:16.130Z,9.99
2024-01-05T05:57:44.165Z,11.02
2024-01-05T06:00:13.110Z,11.26
2024-01-05T06:02:44.201Z,11.90
2024-01-05T06:05:11.957Z,11.23
2024-01-05T06:07:39.801Z,10.61
2024-01-05T06:10:10.061Z,11.42
2024-01-05T06:12:37.989Z,11.99
2024-01-05T06:15:06.853Z,11.99
2024-01-05T06:17:34.787Z,11.91
2024-01-05T06:20:02.666Z,11.95
2024-01-05T06:22:30.495Z,11.34
2024-01-05T06:24:58.495Z,10.89
2024-01-05T06:27:33.086Z,11.52
2024-01-05T06:30:07.856Z,11.67
2024-01-05T06:32:35.804Z,11.32
2024-01-05T06:35:04.515Z,10.95
2024-01-05T06:37:32.364Z,11.23
2024-01-05T06:40:00.281Z,12.21
2024-01-05T06:42:30.021Z,11.58
2024-01-05T06:44:58.123Z,12.21
2024-01-05T06:47:26.624Z,11.86
2024-01-05T06:49:54.983Z,12.23
2024-01-05T06:52:22.977Z,12.34
2024-01-05T06:54:50.854Z,13.09
2024-01-05T06:57:18.821Z,12.90
2024-01-05T06:59:47.993Z,12.50
2024-01-05T07:02:17.697Z,12.75
2024-01-05T07:04:46.334Z,12.86
2024-01-05T07:07:16.854Z,12.95
2024-01-05T07:09:44.992Z,12.89
2024-01-05T07:12:12.829Z,12.52
2024-01-05T07:14:40.754Z,10.80
2024-01-05T07:17:09.932Z,11.03
2024-01-05T07:19:37.924Z,11.08
2024-01-05T07:22:06.000Z,9.95
2024-01-05T07:24:34.960Z,10.58
2024-01-05T07:27:03.281Z,10.63
2024-01-05T07:29:31.146Z,10.22
2024-01-05T07:31:59.007Z,10.90
2024-01-05T07:34:28.381Z,10.53
2024-01-05T07:36:56.311Z,10.27
2024-01-05T07:39:24.095Z,10.39
2024-01-05T07:41:52.338Z,10.41
2024-01-05T07:44:20.268Z,10.86
2024-01-05T07:46:48.155Z,11.25
2024-01-05T07:49:16.102Z,10.20
2024-01-05T07:51:45.860Z,10.21
2024-01-05T07:54:13.986Z,9.91
2024-01-05T07:56:41.804Z,11.07
2024-01-05T07:59:09.622Z,11.70
2024-01-05T08:01:37.552Z,10.93
2024-01-05T08:04:06.145Z,11.38
2024-01-05T08:06:34.448Z,11.65
2024-01-05T08:09:04.028Z,11.01
2024-01-05T08:11:31.935Z,11.56
2024-01-05T08:13:59.787Z,10.87
2024-01-05T08:16:27.814Z,10.41
2024-01-05T08:18:55.651Z,11.67
2024-01-05T08:21:26.471Z,11.96
2024-01-05T08:23:54.315Z,11.33
2024-01-05T08:26:23.870Z,10.70
2024-01-05T08:28:51.719Z,11.15
2024-01-05T08:31:19.679Z,10.33
2024-01-05T08:33:48.060Z,9.27
2024-01-05T08:36:16.180Z,9.09
2024-01-05T08:38:46.590Z,9.50
2024-01-05T08:41:14.487Z,10.09
2024-01-05T08:43:45.353Z,10.81
2024-01-05T08:46:13.354Z,10.94
2024-01-05T08:48:41.261Z,12.02
2024-01-05T08:51:09.194Z,11.38
2024-01-05T08:53:37.012Z,10.89
2024-01-05T08:56:04.827Z,12.41
2024-01-05T08:58:32.615Z,11.36
2024-01-05T09:01:01.853Z,12.62
2024-01-05T09:03:30.229Z,13.45
2024-01-05T09:05:58.184Z,13.41
2024-01-05T09:08:26.227Z,14.57
2024-01-05T09:10:54.060Z,13.95
2024-01-05T09:13:23.321Z,14.99
2024-01-05T09:15:51.236Z,15.85
2024-01-05T09:18:20.511Z,13.44
2024-01-05T09:20:48.826Z,15.59
2024-01-05T09:23:16.568Z,15.19
2024-01-05T09:25:46.801Z,14.09
2024-01-05T09:28:14.825Z,16.15
2024-01-05T09:30:43.000Z,15.75
2024-01-05T09:33:11.087Z,16.92
2024-01-05T09:35:40.770Z,17.56
2024-01-05T09:38:08.724Z,17.10
2024-01-05T09:40:36.608Z,17.27
2024-01-05T09:43:04.726Z,17.18
2024-01-05T09:45:33.116Z,16.47
2024-01-05T09:48:03.551Z,16.77
2024-01-05T09:50:32.808Z,16.71
2024-01-05T09:53:02.156Z,16.90
2024-01-05T09:55:29.948Z,16.64
2024-01-05T09:57:58.325Z,16.71
2024-01-05T10:00:28.463Z,16.74
2024-01-05T10:02:59.736Z,15.27
2024-01-05T10:05:27.755Z,16.00
2024-01-05T10:07:55.707Z,16.57
2024-01-05T10:10:48.602Z,15.51
2024-01-05T10:13:16.772Z,15.72
2024-01-05T10:15:56.068Z,16.51
2024-01-05T10:18:26.314Z,17.00
2024-01-05T10:20:56.463Z,16.82
2024-01-05T10:23:24.504Z,17.09
2024-01-05T10:25:53.730Z,17.18
2024-01-05T10:28:24.437Z,17.04
2024-01-05T10:30:53.783Z,17.02
2024-01-05T10:33:21.770Z,17.27
2024-01-05T10:35:48.761Z,17.04
2024-01-05T10:38:16.743Z,16.26
2024-01-05T10:40:44.608Z,15.36
2024-01-05T10:43:15.843Z,14.98
2024-01-05T10:45:46.270Z,15.98
2024-01-05T10:48:15.615Z,16.42
2024-01-05T10:50:46.698Z,16.70
2024-01-05T10:53:14.846Z,17.00
2024-01-05T10:55:44.640Z,15.80
2024-01-05T10:58:13.834Z,16.73
2024-01-05T11:00:42.389Z,16.67
2024-01-05T11:03:13.034Z,16.85
2024-01-05T11:05:43.297Z,16.95
2024-01-05T11:08:28.009Z,17.00
2024-01-05T11:11:09.119Z,16.87
2024-01-05T11:13:53.485Z,17.12
2024-01-05T11:16:45.974Z,17.13
2024-01-05T11:19:39.877Z,17.11
2024-01-05T11:22:11.530Z,17.30
2024-01-05T11:24:40.985Z,17.57
2024-01-05T11:27:30.472Z,17.54
2024-01-05T11:30:00.344Z,17.58
2024-01-05T11:32:36.029Z,17.79
2024-01-05T11:35:04.023Z,17.63
2024-01-05T11:37:33.260Z,17.28
2024-01-05T11:40:01.749Z,16.49
2024-01-05T11:42:34.967Z,16.25
2024-01-05T11:45:06.186Z,15.70
2024-01-05T11:47:41.815Z,16.58
2024-01-05T11:50:28.655Z,16.71
2024-01-05T11:53:14.150Z,17.11
2024-01-05T11:55:49.245Z,17.18
2024-01-05T11:58:22.038Z,17.09
2024-01-05T12:00:52.864Z,16.48
2024-01-05T12:03:21.968Z,16.27
2024-01-05T12:05:52.026Z,16.66
2024-01-05T12:08:20.397Z,16.72
2024-01-05T12:10:54.260Z,16.23
2024-01-05T12:13:25.693Z,15.36
2024-01-05T12:16:01.259Z,15.07
2024-01-05T12:18:37.565Z,15.22
2024-01-05T12:21:08.991Z,16.01
2024-01-05T12:23:38.604Z,15.98
2024-01-05T12:26:08.132Z,16.27
2024-01-05T12:28:37.693Z,16.27
2024-01-05T12:31:08.887Z,16.21
2024-01-05T12:33:39.300Z,15.79
2024-01-05T12:36:11.154Z,16.01
2024-01-05T12:38:39.529Z,16.30
2024-01-05T12:41:09.668Z,16.09
2024-01-05T12:43:38.035Z,16.34
2024-01-05T12:46:07.474Z,15.75
2024-01-05T12:48:35.840Z,15.30
2024-01-05T12:51:08.061Z,14.38
2024-01-05T12:53:37.504Z,14.96
2024-01-05T12:56:10.037Z,15.57
2024-01-05T12:58:42.587Z,15.43
2024-01-05T13:01:19.048Z,15.88
2024-01-05T13:03:54.277Z,16.60
2024-01-05T13:06:23.587Z,16.83
2024-01-05T13:08:51.615Z,16.72
2024-01-05T13:11:21.032Z,15.73
2024-01-05T13:13:50.067Z,15.85
2024-01-05T13:16:19.412Z,16.12
2024-01-05T13:18:47.485Z,15.81
2024-01-05T13:21:15.779Z,15.84
2024-01-05T13:23:48.081Z,15.49
2024-01-05T13:26:16.189Z,16.16
2024-01-05T13:28:44.893Z,15.87
2024-01-05T13:31:12.909Z,16.10
2024-01-05T13:33:43.881Z,16.40
2024-01-05T13:36:11.978Z,16.33
2024-01-05T13:38:40.734Z,15.62
2024-01-05T13:41:08.647Z,15.25
2024-01-05T13:43:36.805Z,15.76
2024-01-05T13:46:05.471Z,15.03
2024-01-05T13:48:33.441Z,15.50
2024-01-05T13:51:03.038Z,15.79
2024-01-05T13:53:30.912Z,15.77
2024-01-05T13:55:59.522Z,15.31
2024-01-05T13:58:27.313Z,15.28
2024-01-05T14:00:59.309Z,15.49
2024-01-05T14:03:29.585Z,15.53
2024-01-05T14:05:57.961Z,14.91
2024-01-05T14:08:27.173Z,15.77
2024-01-05T14:10:56.225Z,15.73
2024-01-05T14:13:24.508Z,14.26
2024-01-05T14:15:52.530Z,14.11
2024-01-05T14:18:20.612Z,13.15
2024-01-05T14:20:48.623Z,13.50
2024-01-05T14:23:16.413Z,13.15
2024-01-05T14:25:45.509Z,13.29
2024-01-05T14:28:13.391Z,12.67
2024-01-05T14:30:41.286Z,12.00
2024-01-05T14:33:09.540Z,11.49
2024-01-05T14:35:37.637Z,12.00
2024-01-05T14:38:04.559Z,11.54
2024-01-05T14:40:32.288Z,11.62
2024-01-05T14:43:01.392Z,12.11
2024-01-05T14:45:29.284Z,11.72
2024-01-05T14:47:57.652Z,11.73
2024-01-05T14:50:25.496Z,11.61
2024-01-05T14:52:59.991Z,11.63
2024-01-05T14:55:35.923Z,11.57
2024-01-05T14:58:07.317Z,11.83
2024-01-05T15:00:35.444Z,11.64
2024-01-05T15:03:05.078Z,11.88
2024-01-05T15:05:33.355Z,11.96
2024-01-05T15:08:01.254Z,11.81
2024-01-05T15:10:30.057Z,11.76
2024-01-05T15:12:57.940Z,12.04
2024-01-05T15:15:27.264Z,12.41
2024-01-05T15:17:55.345Z,12.83
2024-01-05T15:20:23.266Z,13.81
2024-01-05T15:22:51.151Z,14.15
2024-01-05T15:25:19.158Z,14.45
2024-01-05T15:27:47.201Z,14.56
2024-01-05T15:30:18.043Z,14.69
2024-01-05T15:32:47.356Z,13.33
2024-01-05T15:35:15.281Z,13.89
2024-01-05T15:37:43.310Z,13.65
2024-01-05T15:40:12.752Z,13.99
2024-01-05T15:42:40.627Z,14.55
2024-01-05T15:45:08.929Z,14.29
2024-01-05T15:47:37.536Z,13.78
2024-01-05T15:50:09.664Z,13.88
2024-01-05T15:52:37.483Z,12.70
2024-01-05T15:55:05.954Z,12.28
2024-01-05T15:57:33.902Z,12.18
2024-01-05T16:00:04.469Z,12.27
2024-01-05T16:02:40.278Z,12.40
2024-01-05T16:05:10.865Z,12.05
2024-01-05T16:07:39.017Z,11.35
2024-01-05T16:10:08.337Z,11.55
2024-01-05T16:12:36.276Z,11.37
2024-01-05T16:15:04.397Z,11.45
2024-01-05T16:17:36.863Z,11.70
2024-01-05T16:20:05.235Z,11.58
2024-01-05T16:22:34.435Z,11.90
2024-01-05T16:25:02.272Z,12.10
2024-01-05T16:27:30.464Z,13.46
2024-01-05T16:29:58.858Z,13.69
2024-01-05T16:32:30.982Z,13.00
2024-01-05T16:34:58.902Z,12.72
2024-01-05T16:37:26.603Z,11.76
2024-01-05T16:39:56.254Z,11.62
2024-01-05T16:42:24.325Z,11.54
2024-01-05T16:44:52.372Z,11.22
2024-01-05T16:47:20.464Z,11.14
2024-01-05T16:49:48.473Z,10.89
2024-01-05T16:52:16.348Z,11.02
2024-01-05T16:54:44.264Z,10.97
2024-01-05T16:57:13.525Z,11.29
2024-01-05T16:59:41.947Z,11.23
2024-01-05T17:02:09.784Z,11.46
2024-01-05T17:04:37.832Z,11.32
2024-01-05T17:07:06.032Z,11.51
2024-01-05T17:09:35.884Z,12.12
2024-01-05T17:12:06.068Z,11.88
2024-01-05T17:14:35.478Z,11.58
2024-01-05T17:17:03.357Z,11.43
2024-01-05T17:19:31.265Z,11.24
2024-01-05T17:21:59.241Z,10.96
2024-01-05T17:24:27.105Z,10.55
2024-01-05T17:26:55.052Z,11.13
2024-01-05T17:29:22.914Z,10.70
2024-01-05T17:31:52.163Z,10.92
2024-01-05T17:34:24.101Z,11.58
2024-01-05T17:36:52.115Z,12.82
2024-01-05T17:39:20.040Z,13.49
2024-01-05T17:41:47.888Z,13.64
2024-01-05T17:44:16.755Z,12.99
2024-01-05T17:46:45.626Z,11.93
2024-01-05T17:49:14.925Z,12.05
2024-01-05T17:51:42.879Z,11.52
2024-01-05T17:54:10.887Z,11.28
2024-01-05T17:56:38.740Z,11.35
2024-01-05T17:59:09.803Z,10.93
2024-01-05T18:01:45.718Z,11.58
2024-01-05T18:04:16.827Z,10.69
2024-01-05T18:06:45.287Z,11.59
2024-01-05T18:09:14.389Z,11.89
2024-01-05T18:11:44.215Z,12.49
2024-01-05T18:14:14.218Z,12.39
2024-01-05T18:16:42.373Z,11.47
2024-01-05T18:19:10.505Z,10.86
2024-01-05T18:21:43.474Z,11.51
2024-01-05T18:24:11.492Z,11.44
2024-01-05T18:26:40.286Z,11.74
2024-01-05T18:29:17.089Z,11.65
2024-01-05T18:31:53.666Z,12.37
2024-01-05T18:34:26.454Z,12.78
2024-01-05T18:36:56.313Z,12.41
2024-01-05T18:39:24.277Z,12.24
2024-01-05T18:41:52.185Z,12.82
2024-01-05T18:44:19.930Z,12.49
2024-01-05T18:46:49.428Z,12.60
2024-01-05T18:49:18.752Z,12.68
2024-01-05T18:51:46.775Z,12.35
2024-01-05T18:54:17.577Z,11.31
2024-01-05T18:56:45.450Z,10.73
2024-01-05T18:59:13.390Z,11.17
2024-01-05T19:01:42.450Z,11.05
2024-01-05T19:04:10.467Z,11.48
2024-01-05T19:06:39.365Z,10.63
2024-01-05T19:09:07.682Z,10.23
2024-01-05T19:11:37.616Z,11.05
2024-01-05T19:14:06.313Z,11.36
2024-01-05T19:16:34.574Z,11.75
2024-01-05T19:19:04.291Z,11.52
2024-01-05T19:21:40.156Z,11.00
2024-01-05T19:24:14.883Z,10.56
2024-01-05T19:26:44.397Z,10.28
2024-01-05T19:29:12.188Z,10.18
2024-01-05T19:31:44.585Z,10.13
2024-01-05T19:34:13.319Z,9.69
2024-01-05T19:36:45.244Z,9.77
2024-01-05T19:39:14.144Z,9.65
2024-01-05T19:41:48.298Z,9.46
2024-01-05T19:44:17.789Z,9.48
2024-01-05T19:46:46.016Z,9.80
2024-01-05T19:49:14.237Z,9.69
2024-01-05T19:51:46.934Z,9.78
2024-01-05T19:54:17.717Z,9.77
2024-01-05T19:56:47.585Z,9.65
2024-01-05T19:59:15.768Z,9.70
2024-01-05T20:01:46.897Z,9.60
2024-01-05T20:04:16.246Z,9.53
2024-01-05T20:06:46.125Z,9.56
2024-01-05T20:09:14.535Z,9.61
2024-01-05T20:11:42.462Z,10.15
2024-01-05T20:14:12.466Z,10.17
2024-01-05T20:16:40.689Z,10.55
2024-01-05T20:19:08.718Z,10.73
2024-01-05T20:21:39.790Z,11.28
2024-01-05T20:24:07.731Z,11.85
2024-01-05T20:26:37.086Z,12.48
2024-01-05T20:29:06.495Z,12.13
2024-01-05T20:31:36.151Z,12.87
2024-01-05T20:34:05.952Z,13.34
2024-01-05T20:36:36.205Z,13.47
2024-01-05T20:39:04.848Z,12.12
2024-01-05T20:41:32.778Z,11.81
2024-01-05T20:44:00.589Z,12.58
2024-01-05T20:46:28.522Z,12.78
2024-01-05T20:48:58.660Z,12.94
2024-01-05T20:51:26.650Z,13.08
2024-01-05T20:53:56.261Z,12.64
2024-01-05T20:56:24.199Z,11.97
2024-01-05T20:58:52.083Z,11.83
2024-01-05T21:01:19.955Z,10.68
2024-01-05T21:03:48.510Z,11.11
2024-01-05T21:06:17.811Z,10.39
2024-01-05T21:08:45.669Z,10.81
2024-01-05T21:11:21.202Z,11.48
2024-01-05T21:13:49.286Z,12.12
2024-01-05T21:16:17.146Z,12.47
2024-01-05T21:18:45.054Z,12.19
2024-01-05T21:21:13.002Z,12.68
2024-01-05T21:23:42.734Z,13.02
2024-01-05T21:26:10.668Z,13.08
2024-01-05T21:28:38.511Z,12.70
2024-01-05T21:31:07.740Z,12.33
2024-01-05T21:33:38.577Z,12.50
2024-01-05T21:36:06.938Z,12.70
2024-01-05T21:38:36.610Z,12.23
2024-01-05T21:41:06.231Z,12.35
2024-01-05T21:43:34.146Z,12.08
2024-01-05T21:46:02.022Z,12.09
2024-01-05T21:48:33.362Z,12.51
2024-01-05T21:51:01.428Z,12.55
2024-01-05T21:53:29.405Z,12.72
2024-01-05T21:55:57.252Z,12.69
2024-01-05T21:58:27.082Z,12.81
2024-01-05T22:00:54.930Z,12.49
2024-01-05T22:03:22.828Z,11.68
2024-01-05T22:05:50.670Z,12.61
2024-01-05T22:08:18.995Z,12.43
2024-01-05T22:10:49.422Z,12.52
2024-01-05T22:13:17.334Z,12.56
2024-01-05T22:15:46.564Z,12.83
2024-01-05T22:18:16.368Z,12.57
2024-01-05T22:20:44.531Z,11.58
2024-01-05T22:23:12.414Z,10.71
2024-01-05T22:25:41.512Z,10.47
2024-01-05T22:28:09.656Z,9.96
2024-01-05T22:30:37.660Z,9.67
2024-01-05T22:33:08.244Z,9.71
2024-01-05T22:35:37.486Z,9.81
2024-01-05T22:38:05.681Z,9.25
2024-01-05T22:40:33.670Z,9.66
2024-01-05T22:43:01.467Z,9.43
2024-01-05T22:45:29.439Z,9.23
2024-01-05T22:47:57.281Z,8.98
2024-01-05T22:50:26.439Z,9.12
2024-01-05T22:52:54.343Z,9.16
2024-01-05T22:55:22.115Z,9.02
2024-01-05T22:57:50.402Z,8.84
2024-01-05T23:00:20.470Z,8.87
2024-01-05T23:02:50.974Z,8.56
2024-01-05T23:05:19.061Z,8.56
2024-01-05T23:07:48.346Z,8.88
2024-01-05T23:10:16.349Z,9.03
2024-01-05T23:12:44.312Z,8.98
2024-01-05T23:15:12.484Z,9.05
2024-01-05T23:17:40.309Z,8.86
2024-01-05T23:20:09.938Z,9.56
2024-01-05T23:22:37.893Z,9.23
2024-01-05T23:25:07.335Z,9.24
2024-01-05T23:27:35.397Z,9.37
2024-01-05T23:30:03.867Z,10.16
2024-01-05T23:32:31.907Z,10.73
2024-01-05T23:34:59.833Z,11.24
2024-01-05T23:37:30.526Z,11.36
2024-01-05T23:39:58.629Z,10.15
2024-01-05T23:42:27.972Z,9.34
2024-01-05T23:44:55.972Z,9.02
2024-01-05T23:47:23.854Z,9.07
2024-01-05T23:49:51.832Z,9.06
2024-01-05T23:52:19.719Z,9.15
2024-01-05T23:54:47.735Z,9.02
2024-01-05T23:57:15.723Z,9.30
2024-01-05T23:59:45.252Z,8.84
